createdAt,value
2023-09-21T00:00:21.863Z,97447.84
2023-09-21T00:02:23.918Z,97448.94
2023-09-21T00:04:28.640Z,97443.94
2023-09-21T00:06:37.966Z,97441.31
2023-09-21T00:08:42.797Z,97443.09
2023-09-21T00:10:49.330Z,97433.50
2023-09-21T00:12:51.480Z,97433.50
2023-09-21T00:14:56.157Z,97430.31
2023-09-21T00:17:01.669Z,97431.41
2023-09-21T00:19:08.652Z,97425.59
2023-09-21T00:21:14.074Z,97427.06
2023-09-21T00:23:21.820Z,97419.16
2023-09-21T00:25:28.962Z,97413.47
2023-09-21T00:27:34.797Z,97422.31
2023-09-21T00:29:37.687Z,97418.59
2023-09-21T00:31:42.451Z,97424.00
2023-09-21T00:33:47.202Z,97410.69
2023-09-21T00:35:49.549Z,97413.47
2023-09-21T00:37:54.329Z,97402.22
2023-09-21T00:40:01.653Z,97407.50
2023-09-21T00:42:06.831Z,97405.84
2023-09-21T00:44:13.264Z,97402.34
2023-09-21T00:46:18.186Z,97402.22
2023-09-21T00:48:24.240Z,97404.03
2023-09-21T00:50:30.554Z,97397.94
2023-09-21T00:52:35.258Z,97398.88
2023-09-21T00:54:40.009Z,97392.78
2023-09-21T00:56:49.231Z,97397.22
2023-09-21T00:58:52.016Z,97391.97
2023-09-21T01:00:57.782Z,97381.44
2023-09-21T01:03:09.276Z,97388.50
2023-09-21T01:05:15.767Z,97383.09
2023-09-21T01:07:23.775Z,97379.50
2023-09-21T01:09:28.601Z,97372.56
2023-09-21T01:11:38.445Z,97374.25
2023-09-21T01:13:48.932Z,97377.81
2023-09-21T01:15:59.803Z,97377.81
2023-09-21T01:18:08.036Z,97368.13
2023-09-21T01:20:23.778Z,97366.34
2023-09-21T01:22:29.656Z,97363.00
2023-09-21T01:24:36.988Z,97362.16
2023-09-21T01:26:41.657Z,97351.06
2023-09-21T01:28:47.265Z,97350.47
2023-09-21T01:30:52.876Z,97354.09
2023-09-21T01:32:55.135Z,97356.72
2023-09-21T01:35:00.142Z,97361.53
2023-09-21T01:37:07.006Z,97359.75
2023-09-21T01:39:12.320Z,97358.09
2023-09-21T01:41:20.249Z,97357.25
2023-09-21T01:43:25.371Z,97360.84
2023-09-21T01:45:30.112Z,97352.00
2023-09-21T01:47:37.523Z,97354.63
2023-09-21T01:49:42.629Z,97355.44
2023-09-21T01:51:47.352Z,97358.09
2023-09-21T01:53:54.867Z,97346.72
2023-09-21T01:55:59.791Z,97347.56
2023-09-21T01:58:05.388Z,97346.97
2023-09-21T02:00:23.301Z,97343.75
2023-09-21T02:02:28.378Z,97348.31
2023-09-21T02:04:33.146Z,97352.88
2023-09-21T02:06:37.980Z,97359.38
2023-09-21T02:08:43.212Z,97344.66
2023-09-21T02:10:51.337Z,97350.03
2023-09-21T02:12:55.567Z,97344.22
2023-09-21T02:15:03.265Z,97348.78
2023-09-21T02:17:08.243Z,97341.84
2023-09-21T02:19:13.537Z,97345.56
2023-09-21T02:21:19.005Z,97343.09
2023-09-21T02:23:23.812Z,97340.47
2023-09-21T02:25:27.329Z,97336.13
2023-09-21T02:27:35.571Z,97336.41
2023-09-21T02:29:42.183Z,97330.44
2023-09-21T02:31:49.512Z,97333.91
2023-09-21T02:33:51.698Z,97333.09
2023-09-21T02:35:56.466Z,97332.22
2023-09-21T02:38:01.204Z,97328.66
2023-09-21T02:40:06.176Z,97323.38
2023-09-21T02:42:12.216Z,97329.47
2023-09-21T02:44:17.790Z,97323.25
2023-09-21T02:46:20.077Z,97323.13
2023-09-21T02:48:27.516Z,97316.88
2023-09-21T02:50:32.716Z,97314.25
2023-09-21T02:52:34.984Z,97310.66
2023-09-21T02:54:39.764Z,97310.66
2023-09-21T02:56:45.267Z,97306.50
2023-09-21T02:58:51.414Z,97312.03
2023-09-21T03:00:56.326Z,97321.84
2023-09-21T03:03:02.333Z,97317.69
2023-09-21T03:05:12.440Z,97310.75
2023-09-21T03:07:18.201Z,97311.69
2023-09-21T03:09:24.019Z,97306.59
2023-09-21T03:11:26.312Z,97305.63
2023-09-21T03:13:31.504Z,97308.13
2023-09-21T03:15:36.537Z,97309.78
2023-09-21T03:17:41.313Z,97307.53
2023-09-21T03:19:47.659Z,97312.03
2023-09-21T03:21:54.977Z,97316.22
2023-09-21T03:23:59.762Z,97318.91
2023-09-21T03:26:04.468Z,97309.59
2023-09-21T03:28:11.976Z,97306.97
2023-09-21T03:30:17.586Z,97298.00
2023-09-21T03:32:22.450Z,97293.44
2023-09-21T03:34:27.599Z,97297.59
2023-09-21T03:36:35.073Z,97300.13
2023-09-21T03:38:42.693Z,97286.84
2023-09-21T03:40:49.493Z,97288.53
2023-09-21T03:42:56.238Z,97283.25
2023-09-21T03:45:00.937Z,97278.69
2023-09-21T03:47:05.727Z,97275.94
2023-09-21T03:49:12.480Z,97281.06
2023-09-21T03:51:19.012Z,97282.84
2023-09-21T03:53:24.561Z,97277.59
2023-09-21T03:55:31.860Z,97280.13
2023-09-21T03:57:35.069Z,97276.06
2023-09-21T03:59:41.359Z,97280.19
2023-09-21T04:01:48.040Z,97279.06
2023-09-21T04:03:55.566Z,97291.09
2023-09-21T04:06:04.957Z,97290.34
2023-09-21T04:08:10.117Z,97282.84
2023-09-21T04:10:13.027Z,97278.41
2023-09-21T04:12:20.364Z,97268.63
2023-09-21T04:14:25.941Z,97273.75
2023-09-21T04:16:30.756Z,97268.38
2023-09-21T04:18:35.957Z,97268.00
2023-09-21T04:20:42.698Z,97252.97
2023-09-21T04:22:47.503Z,97246.41
2023-09-21T04:24:49.693Z,97246.41
2023-09-21T04:26:54.864Z,97251.09
2023-09-21T04:29:02.208Z,97251.19
2023-09-21T04:31:10.839Z,97254.28
2023-09-21T04:33:18.245Z,97250.34
2023-09-21T04:35:23.492Z,97247.34
2023-09-21T04:37:26.318Z,97242.53
2023-09-21T04:39:31.802Z,97237.88
2023-09-21T04:41:37.187Z,97241.19
2023-09-21T04:43:41.979Z,97239.84
2023-09-21T04:45:51.257Z,97238.50
2023-09-21T04:48:02.363Z,97240.19
2023-09-21T04:50:13.489Z,97244.84
2023-09-21T04:52:18.375Z,97249.16
2023-09-21T04:54:24.074Z,97242.13
2023-09-21T04:56:30.170Z,97235.06
2023-09-21T04:58:36.097Z,97233.25
2023-09-21T05:00:40.873Z,97223.25
2023-09-21T05:02:49.107Z,97217.28
2023-09-21T05:04:56.993Z,97222.53
2023-09-21T05:07:01.794Z,97225.19
2023-09-21T05:09:07.731Z,97234.75
2023-09-21T05:11:12.829Z,97231.84
2023-09-21T05:13:17.555Z,97232.91
2023-09-21T05:15:23.701Z,97229.75
2023-09-21T05:17:28.644Z,97233.78
2023-09-21T05:19:36.206Z,97222.94
2023-09-21T05:21:41.799Z,97213.81
2023-09-21T05:23:46.903Z,97217.03
2023-09-21T05:25:49.233Z,97221.44
2023-09-21T05:27:54.028Z,97214.25
2023-09-21T05:29:58.901Z,97217.59
2023-09-21T05:32:04.648Z,97219.00
2023-09-21T05:34:07.003Z,97216.00
2023-09-21T05:36:14.582Z,97211.19
2023-09-21T05:38:19.375Z,97207.44
2023-09-21T05:40:24.124Z,97210.66
2023-09-21T05:42:28.913Z,97204.16
2023-09-21T05:44:31.166Z,97213.72
2023-09-21T05:46:35.930Z,97200.28
2023-09-21T05:48:43.011Z,97206.16
2023-09-21T05:50:48.303Z,97199.09
2023-09-21T05:52:57.791Z,97198.25
2023-09-21T05:55:02.907Z,97191.91
2023-09-21T05:57:07.643Z,97201.91
2023-09-21T05:59:12.489Z,97198.03
2023-09-21T06:01:17.586Z,97206.75
2023-09-21T06:03:22.543Z,97210.91
2023-09-21T06:05:27.983Z,97209.00
2023-09-21T06:07:34.002Z,97210.81
2023-09-21T06:09:41.352Z,97207.91
2023-09-21T06:11:46.125Z,97196.03
2023-09-21T06:13:51.268Z,97198.94
2023-09-21T06:15:56.002Z,97197.00
2023-09-21T06:18:01.535Z,97197.56
2023-09-21T06:20:07.198Z,97199.38
2023-09-21T06:22:14.060Z,97198.47
2023-09-21T06:24:19.509Z,97191.69
2023-09-21T06:26:26.856Z,97188.94
2023-09-21T06:28:31.601Z,97180.09
2023-09-21T06:30:36.650Z,97175.91
2023-09-21T06:32:41.420Z,97173.16
2023-09-21T06:34:49.419Z,97177.44
2023-09-21T06:36:54.598Z,97178.13
2023-09-21T06:39:00.123Z,97174.22
2023-09-21T06:41:05.344Z,97176.19
2023-09-21T06:43:13.599Z,97171.72
2023-09-21T06:45:18.464Z,97180.75
2023-09-21T06:47:24.441Z,97186.72
2023-09-21T06:49:30.967Z,97180.34
2023-09-21T06:51:35.707Z,97182.16
2023-09-21T06:53:40.355Z,97177.69
2023-09-21T06:55:45.180Z,97179.75
2023-09-21T06:57:49.846Z,97181.28
2023-09-21T06:59:57.236Z,97171.84
2023-09-21T07:02:02.034Z,97177.97
2023-09-21T07:04:05.208Z,97177.00
2023-09-21T07:06:11.503Z,97185.31
2023-09-21T07:08:16.822Z,97186.97
2023-09-21T07:10:21.603Z,97196.00
2023-09-21T07:12:23.992Z,97185.16
2023-09-21T07:14:28.794Z,97177.84
2023-09-21T07:16:36.138Z,97181.88
2023-09-21T07:18:41.060Z,97180.31
2023-09-21T07:20:46.048Z,97177.25
2023-09-21T07:22:51.019Z,97176.44
2023-09-21T07:24:55.744Z,97178.78
2023-09-21T07:27:01.773Z,97179.31
2023-09-21T07:29:08.532Z,97174.88
2023-09-21T07:31:13.404Z,97177.66
2023-09-21T07:33:22.251Z,97168.38
2023-09-21T07:35:28.315Z,97166.28
2023-09-21T07:37:33.143Z,97170.41
2023-09-21T07:39:37.930Z,97166.13
2023-09-21T07:41:42.757Z,97163.22
2023-09-21T07:43:48.293Z,97163.09
2023-09-21T07:45:55.196Z,97163.31
2023-09-21T07:48:00.172Z,97158.59
2023-09-21T07:50:07.976Z,97158.00
2023-09-21T07:52:12.864Z,97157.13
2023-09-21T07:54:17.653Z,97149.03
2023-09-21T07:56:22.389Z,97145.06
2023-09-21T07:58:27.073Z,97135.44
2023-09-21T08:00:31.938Z,97137.22
2023-09-21T08:02:36.925Z,97131.72
2023-09-21T08:04:42.042Z,97129.09
2023-09-21T08:06:51.285Z,97122.44
2023-09-21T08:08:56.341Z,97126.19
2023-09-21T08:11:01.245Z,97125.72
2023-09-21T08:13:08.663Z,97121.72
2023-09-21T08:15:14.867Z,97103.84
2023-09-21T08:17:20.065Z,97111.81
2023-09-21T08:19:24.871Z,97099.44
2023-09-21T08:21:29.798Z,97105.25
2023-09-21T08:23:37.496Z,97098.13
2023-09-21T08:25:43.079Z,97100.28
2023-09-21T08:27:47.753Z,97100.44
2023-09-21T08:29:52.760Z,97093.84
2023-09-21T08:31:57.667Z,97099.28
2023-09-21T08:34:03.043Z,97096.63
2023-09-21T08:36:10.761Z,97093.44
2023-09-21T08:38:13.180Z,97086.84
2023-09-21T08:40:20.602Z,97095.09
2023-09-21T08:42:26.855Z,97079.06
2023-09-21T08:44:31.768Z,97080.03
2023-09-21T08:46:37.920Z,97084.38
2023-09-21T08:48:44.870Z,97079.72
2023-09-21T08:50:51.006Z,97084.84
2023-09-21T08:52:57.355Z,97073.44
2023-09-21T08:55:02.338Z,97078.41
2023-09-21T08:57:12.602Z,97066.47
2023-09-21T08:59:17.611Z,97071.63
2023-09-21T09:01:23.032Z,97068.13
2023-09-21T09:03:28.464Z,97065.94
2023-09-21T09:05:34.600Z,97066.31
2023-09-21T09:07:43.015Z,97064.81
2023-09-21T09:09:48.515Z,97066.16
2023-09-21T09:11:53.539Z,97066.31
2023-09-21T09:14:00.923Z,97056.88
2023-09-21T09:16:06.619Z,97065.16
2023-09-21T09:18:12.952Z,97056.00
2023-09-21T09:20:19.257Z,97055.66
2023-09-21T09:22:23.905Z,97046.88
2023-09-21T09:24:31.311Z,97048.84
2023-09-21T09:26:38.467Z,97041.38
2023-09-21T09:28:45.317Z,97028.91
2023-09-21T09:30:53.672Z,97034.72
2023-09-21T09:32:56.934Z,97039.81
2023-09-21T09:35:03.577Z,97036.81
2023-09-21T09:37:08.382Z,97040.47
2023-09-21T09:39:16.592Z,97040.94
2023-09-21T09:41:21.421Z,97037.28
2023-09-21T09:43:28.702Z,97024.50
2023-09-21T09:45:34.792Z,97018.78
2023-09-21T09:47:43.353Z,97010.78
2023-09-21T09:49:50.102Z,97008.09
2023-09-21T09:51:57.743Z,97004.78
2023-09-21T09:54:03.431Z,97004.25
2023-09-21T09:56:11.299Z,97008.56
2023-09-21T09:58:16.957Z,97008.41
2023-09-21T10:00:24.107Z,97006.22
2023-09-21T10:02:29.904Z,96998.72
2023-09-21T10:04:38.033Z,97002.84
2023-09-21T10:06:43.840Z,96997.69
2023-09-21T10:08:48.875Z,96998.72
2023-09-21T10:10:56.033Z,96991.41
2023-09-21T10:13:02.224Z,96984.91
2023-09-21T10:15:08.853Z,96976.94
2023-09-21T10:17:16.128Z,96976.50
2023-09-21T10:19:21.001Z,96967.16
2023-09-21T10:21:30.698Z,96971.38
2023-09-21T10:23:36.318Z,96961.31
2023-09-21T10:25:42.954Z,96959.41
2023-09-21T10:27:47.743Z,96956.88
2023-09-21T10:29:55.562Z,96953.09
2023-09-21T10:32:03.297Z,96957.97
2023-09-21T10:34:06.597Z,96953.94
2023-09-21T10:36:16.877Z,96966.31
2023-09-21T10:38:24.585Z,96953.75
2023-09-21T10:40:31.133Z,96953.06
2023-09-21T10:42:38.958Z,96946.06
2023-09-21T10:45:04.497Z,96940.00
2023-09-21T10:47:09.484Z,96941.69
2023-09-21T10:49:17.876Z,96941.69
2023-09-21T10:51:25.765Z,96935.25
2023-09-21T10:53:37.146Z,96935.16
2023-09-21T10:55:42.538Z,96927.34
2023-09-21T10:57:47.903Z,96916.97
2023-09-21T11:00:05.719Z,96919.63
2023-09-21T11:02:15.481Z,96906.75
2023-09-21T11:04:20.174Z,96902.53
2023-09-21T11:06:24.951Z,96894.81
2023-09-21T11:08:31.384Z,96888.22
2023-09-21T11:10:43.859Z,96884.16
2023-09-21T11:12:53.282Z,96886.06
2023-09-21T11:14:55.734Z,96887.84
2023-09-21T11:17:00.531Z,96878.66
2023-09-21T11:19:05.822Z,96871.66
2023-09-21T11:21:10.865Z,96871.28
2023-09-21T11:23:16.796Z,96864.38
2023-09-21T11:25:23.791Z,96871.44
2023-09-21T11:27:32.042Z,96863.25
2023-09-21T11:29:34.839Z,96865.75
2023-09-21T11:31:39.591Z,96862.47
2023-09-21T11:33:44.673Z,96858.00
2023-09-21T11:35:49.454Z,96852.69
2023-09-21T11:37:54.484Z,96839.97
2023-09-21T11:39:59.323Z,96843.56
2023-09-21T11:42:04.724Z,96840.16
2023-09-21T11:44:14.609Z,96836.16
2023-09-21T11:46:22.541Z,96836.16
2023-09-21T11:48:31.078Z,96836.19
2023-09-21T11:50:36.435Z,96833.69
2023-09-21T11:52:39.102Z,96830.44
2023-09-21T11:54:44.064Z,96825.31
2023-09-21T11:56:48.488Z,96831.50
2023-09-21T11:58:55.380Z,96821.06
2023-09-21T12:01:16.811Z,96821.06
2023-09-21T12:03:23.622Z,96819.84
2023-09-21T12:05:29.924Z,96817.81
2023-09-21T12:07:35.216Z,96814.38
2023-09-21T12:09:42.330Z,96807.22
2023-09-21T12:11:48.164Z,96809.47
2023-09-21T12:13:53.685Z,96796.97
2023-09-21T12:16:00.798Z,96793.91
2023-09-21T12:18:11.262Z,96796.41
2023-09-21T12:20:19.074Z,96789.66
2023-09-21T12:22:23.967Z,96786.78
2023-09-21T12:24:28.953Z,96782.91
2023-09-21T12:26:34.307Z,96777.59
2023-09-21T12:28:39.653Z,96772.31
2023-09-21T12:30:45.987Z,96769.06
2023-09-21T12:32:51.088Z,96762.31
2023-09-21T12:35:03.617Z,96770.31
2023-09-21T12:37:09.046Z,96765.59
2023-09-21T12:39:14.888Z,96763.19
2023-09-21T12:41:22.114Z,96768.28
2023-09-21T12:43:25.766Z,96762.78
2023-09-21T12:45:34.996Z,96764.59
2023-09-21T12:47:54.579Z,96761.72
2023-09-21T12:50:05.299Z,96757.84
2023-09-21T12:52:10.308Z,96756.38
2023-09-21T12:54:16.845Z,96757.41
2023-09-21T12:56:21.787Z,96761.09
2023-09-21T12:58:26.928Z,96761.50
2023-09-21T13:00:34.152Z,96761.31
2023-09-21T13:02:39.133Z,96761.31
2023-09-21T13:04:44.095Z,96757.44
2023-09-21T13:06:51.798Z,96754.78
2023-09-21T13:08:55.544Z,96761.75
2023-09-21T13:11:02.110Z,96742.88
2023-09-21T13:13:12.558Z,96743.72
2023-09-21T13:15:18.605Z,96731.59
2023-09-21T13:17:25.057Z,96727.09
2023-09-21T13:19:30.784Z,96727.91
2023-09-21T13:21:35.812Z,96720.13
2023-09-21T13:23:43.850Z,96721.34
2023-09-21T13:25:45.901Z,96718.69
2023-09-21T13:27:51.396Z,96714.00
2023-09-21T13:29:56.469Z,96718.28
2023-09-21T13:32:01.261Z,96715.63
2023-09-21T13:34:06.091Z,96707.00
2023-09-21T13:36:10.963Z,96706.81
2023-09-21T13:38:15.759Z,96693.47
2023-09-21T13:40:23.532Z,96694.50
2023-09-21T13:42:31.157Z,96698.41
2023-09-21T13:44:36.294Z,96693.06
2023-09-21T13:46:41.518Z,96686.94
2023-09-21T13:48:46.402Z,96684.06
2023-09-21T13:50:51.690Z,96686.94
2023-09-21T13:52:56.442Z,96681.00
2023-09-21T13:55:10.765Z,96675.06
2023-09-21T13:57:30.596Z,96666.47
2023-09-21T13:59:35.435Z,96672.41
2023-09-21T14:01:43.342Z,96662.38
2023-09-21T14:03:48.648Z,96660.09
2023-09-21T14:05:54.162Z,96655.59
2023-09-21T14:08:01.817Z,96653.94
2023-09-21T14:10:07.951Z,96654.56
2023-09-21T14:12:15.412Z,96642.44
2023-09-21T14:14:22.725Z,96643.25
2023-09-21T14:16:27.692Z,96650.00
2023-09-21T14:18:34.486Z,96653.50
2023-09-21T14:20:39.623Z,96650.03
2023-09-21T14:22:52.279Z,96647.13
2023-09-21T14:24:57.004Z,96645.88
2023-09-21T14:27:02.022Z,96644.84
2023-09-21T14:29:06.848Z,96646.47
2023-09-21T14:31:16.000Z,96640.09
2023-09-21T14:33:20.790Z,96633.91
2023-09-21T14:35:27.086Z,96634.53
2023-09-21T14:37:34.149Z,96638.44
2023-09-21T14:39:39.987Z,96635.97
2023-09-21T14:41:44.892Z,96632.03
2023-09-21T14:43:49.767Z,96630.78
2023-09-21T14:45:54.807Z,96625.63
2023-09-21T14:48:02.544Z,96622.97
2023-09-21T14:50:09.338Z,96620.50
2023-09-21T14:52:14.378Z,96619.72
2023-09-21T14:54:19.507Z,96620.34
2023-09-21T14:56:25.408Z,96613.56
2023-09-21T14:58:30.324Z,96607.03
2023-09-21T15:00:36.158Z,96607.84
2023-09-21T15:02:40.980Z,96611.13
2023-09-21T15:04:48.307Z,96611.56
2023-09-21T15:06:51.924Z,96610.34
2023-09-21T15:08:57.805Z,96610.53
2023-09-21T15:11:02.790Z,96609.13
2023-09-21T15:13:07.593Z,96595.59
2023-09-21T15:15:14.421Z,96598.25
2023-09-21T15:17:20.714Z,96596.97
2023-09-21T15:19:23.543Z,96593.69
2023-09-21T15:21:32.411Z,96600.88
2023-09-21T15:23:37.495Z,96601.53
2023-09-21T15:25:48.063Z,96609.34
2023-09-21T15:27:55.847Z,96599.91
2023-09-21T15:30:00.826Z,96599.09
2023-09-21T15:32:05.799Z,96587.59
2023-09-21T15:34:10.526Z,96587.38
2023-09-21T15:36:15.291Z,96589.66
2023-09-21T15:38:23.324Z,96591.50
2023-09-21T15:40:29.662Z,96595.41
2023-09-21T15:42:34.788Z,96585.34
2023-09-21T15:44:39.987Z,96577.75
2023-09-21T15:46:46.316Z,96576.53
2023-09-21T15:48:51.638Z,96570.19
2023-09-21T15:50:55.094Z,96574.69
2023-09-21T15:53:01.201Z,96581.88
2023-09-21T15:55:12.636Z,96580.25
2023-09-21T15:57:17.576Z,96574.50
2023-09-21T15:59:22.526Z,96572.84
2023-09-21T16:01:29.357Z,96566.47
2023-09-21T16:03:35.068Z,96577.34
2023-09-21T16:05:41.043Z,96574.88
2023-09-21T16:07:45.798Z,96577.16
2023-09-21T16:09:50.535Z,96576.94
2023-09-21T16:11:59.145Z,96576.31
2023-09-21T16:14:03.877Z,96573.47
2023-09-21T16:16:10.825Z,96572.84
2023-09-21T16:18:15.645Z,96582.25
2023-09-21T16:20:21.066Z,96571.19
2023-09-21T16:22:26.084Z,96573.44
2023-09-21T16:24:39.266Z,96570.97
2023-09-21T16:26:44.498Z,96569.53
2023-09-21T16:28:51.832Z,96566.66
2023-09-21T16:30:58.757Z,96576.53
2023-09-21T16:33:05.337Z,96572.41
2023-09-21T16:35:10.859Z,96570.97
2023-09-21T16:37:19.608Z,96571.78
2023-09-21T16:39:25.404Z,96580.81
2023-09-21T16:41:31.032Z,96577.31
2023-09-21T16:43:37.442Z,96575.66
2023-09-21T16:45:44.853Z,96578.56
2023-09-21T16:47:49.925Z,96574.03
2023-09-21T16:49:55.972Z,96572.38
2023-09-21T16:52:03.856Z,96572.59
2023-09-21T16:54:10.437Z,96568.47
2023-09-21T16:56:13.031Z,96573.00
2023-09-21T16:58:17.797Z,96570.53
2023-09-21T17:00:22.603Z,96571.13
2023-09-21T17:02:30.105Z,96575.00
2023-09-21T17:04:34.989Z,96564.94
2023-09-21T17:06:39.854Z,96567.38
2023-09-21T17:08:49.681Z,96562.22
2023-09-21T17:10:59.391Z,96557.69
2023-09-21T17:13:04.215Z,96564.84
2023-09-21T17:15:10.578Z,96568.31
2023-09-21T17:17:17.535Z,96568.06
2023-09-21T17:19:25.216Z,96574.19
2023-09-21T17:21:31.675Z,96566.78
2023-09-21T17:23:36.476Z,96561.03
2023-09-21T17:25:44.856Z,96563.44
2023-09-21T17:27:49.837Z,96549.53
2023-09-21T17:29:59.122Z,96544.97
2023-09-21T17:32:06.268Z,96535.34
2023-09-21T17:34:14.259Z,96526.53
2023-09-21T17:36:25.230Z,96529.19
2023-09-21T17:38:27.457Z,96536.16
2023-09-21T17:40:32.253Z,96535.97
2023-09-21T17:42:42.785Z,96536.78
2023-09-21T17:44:50.923Z,96531.47
2023-09-21T17:46:55.629Z,96536.16
2023-09-21T17:49:02.027Z,96542.09
2023-09-21T17:51:07.847Z,96534.09
2023-09-21T17:53:19.005Z,96535.09
2023-09-21T17:55:28.234Z,96536.31
2023-09-21T17:57:33.924Z,96537.75
2023-09-21T17:59:40.947Z,96542.00
2023-09-21T18:01:46.973Z,96546.09
2023-09-21T18:03:58.216Z,96547.69
2023-09-21T18:06:05.494Z,96540.28
2023-09-21T18:08:10.396Z,96551.31
2023-09-21T18:10:20.311Z,96558.06
2023-09-21T18:12:26.090Z,96549.25
2023-09-21T18:14:30.924Z,96549.25
2023-09-21T18:16:39.642Z,96558.44
2023-09-21T18:18:44.855Z,96566.44
2023-09-21T18:20:52.358Z,96564.16
2023-09-21T18:22:58.205Z,96567.22
2023-09-21T18:25:07.710Z,96569.88
2023-09-21T18:27:17.165Z,96566.38
2023-09-21T18:29:22.120Z,96568.41
2023-09-21T18:31:29.504Z,96565.94
2023-09-21T18:33:34.594Z,96561.81
2023-09-21T18:35:42.210Z,96561.66
2023-09-21T18:37:48.475Z,96564.47
2023-09-21T18:39:53.441Z,96560.72
2023-09-21T18:42:01.543Z,96556.00
2023-09-21T18:44:09.428Z,96562.91
2023-09-21T18:46:14.367Z,96561.44
2023-09-21T18:48:19.289Z,96564.50
2023-09-21T18:50:21.731Z,96563.44
2023-09-21T18:52:28.960Z,96565.81
2023-09-21T18:54:34.017Z,96563.94
2023-09-21T18:56:50.742Z,96555.69
2023-09-21T18:59:02.952Z,96553.81
2023-09-21T19:01:13.542Z,96557.88
2023-09-21T19:03:19.446Z,96546.81
2023-09-21T19:05:22.506Z,96541.22
2023-09-21T19:07:27.231Z,96540.97
2023-09-21T19:09:32.831Z,96544.00
2023-09-21T19:11:37.898Z,96542.25
2023-09-21T19:13:42.603Z,96535.31
2023-09-21T19:15:47.937Z,96538.34
2023-09-21T19:17:56.554Z,96530.94
2023-09-21T19:20:01.576Z,96532.16
2023-09-21T19:22:08.460Z,96539.66
2023-09-21T19:24:13.334Z,96530.88
2023-09-21T19:26:18.911Z,96530.69
2023-09-21T19:28:24.729Z,96530.88
2023-09-21T19:30:29.692Z,96540.69
2023-09-21T19:32:35.787Z,96532.88
2023-09-21T19:34:43.256Z,96538.41
2023-09-21T19:36:48.095Z,96524.47
2023-09-21T19:38:52.875Z,96530.81
2023-09-21T19:40:57.674Z,96531.63
2023-09-21T19:43:02.365Z,96538.13
2023-09-21T19:45:08.190Z,96533.63
2023-09-21T19:47:15.113Z,96525.66
2023-09-21T19:49:20.384Z,96530.53
2023-09-21T19:51:26.492Z,96534.22
2023-09-21T19:53:34.116Z,96529.72
2023-09-21T19:55:42.782Z,96538.72
2023-09-21T19:57:50.435Z,96533.41
2023-09-21T19:59:56.722Z,96534.59
2023-09-21T20:02:01.522Z,96537.84
2023-09-21T20:04:06.542Z,96531.72
2023-09-21T20:06:11.598Z,96535.56
2023-09-21T20:08:19.109Z,96535.78
2023-09-21T20:10:21.326Z,96534.69
2023-09-21T20:12:26.406Z,96535.69
2023-09-21T20:14:31.393Z,96534.88
2023-09-21T20:16:37.654Z,96538.53
2023-09-21T20:18:42.556Z,96546.69
2023-09-21T20:20:47.396Z,96550.34
2023-09-21T20:22:49.775Z,96551.53
2023-09-21T20:24:57.158Z,96558.84
2023-09-21T20:27:01.891Z,96558.03
2023-09-21T20:29:08.910Z,96559.22
2023-09-21T20:31:14.452Z,96558.97
2023-09-21T20:33:19.297Z,96556.06
2023-09-21T20:35:25.276Z,96556.22
2023-09-21T20:37:30.016Z,96559.91
2023-09-21T20:39:34.855Z,96567.03
2023-09-21T20:41:39.759Z,96567.03
2023-09-21T20:43:44.660Z,96571.53
2023-09-21T20:45:49.639Z,96572.72
2023-09-21T20:47:54.473Z,96576.19
2023-09-21T20:49:59.192Z,96580.47
2023-09-21T20:52:01.268Z,96584.97
2023-09-21T20:54:06.277Z,96593.28
2023-09-21T20:56:11.066Z,96653.91
2023-09-21T20:58:18.366Z,96718.94
2023-09-21T21:00:21.347Z,96720.00
2023-09-21T21:02:26.284Z,96750.72
2023-09-21T21:04:28.515Z,96777.81
2023-09-21T21:06:33.246Z,96757.59
2023-09-21T21:08:38.055Z,96815.41
2023-09-21T21:10:40.206Z,96844.03
2023-09-21T21:12:45.073Z,96879.28
2023-09-21T21:14:52.448Z,96890.19
2023-09-21T21:16:57.172Z,96903.94
2023-09-21T21:19:02.048Z,96896.47
2023-09-21T21:21:07.358Z,96960.00
2023-09-21T21:23:12.137Z,96972.88
2023-09-21T21:25:16.834Z,96970.63
2023-09-21T21:27:21.764Z,96977.25
2023-09-21T21:29:26.750Z,96987.44
2023-09-21T21:31:34.082Z,96982.22
2023-09-21T21:33:38.940Z,96985.28
2023-09-21T21:35:44.165Z,96981.09
2023-09-21T21:37:48.935Z,96955.09
2023-09-21T21:39:53.807Z,96978.09
2023-09-21T21:41:58.745Z,96979.78
2023-09-21T21:44:00.944Z,96982.03
2023-09-21T21:46:05.809Z,96977.75
2023-09-21T21:48:13.355Z,96982.84
2023-09-21T21:50:18.134Z,96984.09
2023-09-21T21:52:22.863Z,96970.84
2023-09-21T21:54:27.519Z,96963.22
2023-09-21T21:56:32.300Z,96965.31
2023-09-21T21:58:37.095Z,96972.09
2023-09-21T22:00:42.879Z,96968.19
2023-09-21T22:02:47.718Z,96956.84
2023-09-21T22:04:55.206Z,96946.75
2023-09-21T22:06:59.861Z,96948.41
2023-09-21T22:09:04.670Z,96941.78
2023-09-21T22:11:10.433Z,96946.06
2023-09-21T22:13:15.091Z,96949.47
2023-09-21T22:15:20.413Z,96960.03
2023-09-21T22:17:25.553Z,96948.75
2023-09-21T22:19:30.227Z,96939.75
2023-09-21T22:21:37.969Z,96940.81
2023-09-21T22:23:40.505Z,96954.09
2023-09-21T22:25:45.260Z,96951.09
2023-09-21T22:27:50.013Z,96962.16
2023-09-21T22:29:55.483Z,96962.22
2023-09-21T22:32:00.195Z,96947.50
2023-09-21T22:34:05.285Z,96945.94
2023-09-21T22:36:10.051Z,96947.16
2023-09-21T22:38:19.029Z,96957.13
2023-09-21T22:40:23.829Z,96949.47
2023-09-21T22:42:38.736Z,96949.81
2023-09-21T22:44:51.867Z,96942.97
2023-09-21T22:46:57.646Z,96931.22
2023-09-21T22:49:02.386Z,96925.78
2023-09-21T22:51:07.146Z,96941.16
2023-09-21T22:53:13.895Z,96951.72
2023-09-21T22:55:23.041Z,96951.72
2023-09-21T22:57:25.132Z,96944.63
2023-09-21T22:59:29.958Z,96948.78
2023-09-21T23:01:33.313Z,96957.22
2023-09-21T23:03:38.132Z,96967.16
2023-09-21T23:05:42.978Z,96976.28
2023-09-21T23:07:49.490Z,96980.13
2023-09-21T23:09:54.419Z,96974.03
2023-09-21T23:12:01.915Z,96972.09
2023-09-21T23:14:07.317Z,96984.38
2023-09-21T23:16:09.707Z,96992.88
2023-09-21T23:18:15.135Z,96991.06
2023-09-21T23:20:21.254Z,96990.00
2023-09-21T23:22:23.317Z,96985.88
2023-09-21T23:24:28.258Z,96990.59
2023-09-21T23:26:35.021Z,96998.16
2023-09-21T23:28:42.371Z,96996.63
2023-09-21T23:30:45.189Z,96996.84
2023-09-21T23:32:50.855Z,97008.94
2023-09-21T23:34:56.679Z,97015.03
2023-09-21T23:37:01.462Z,97018.19
2023-09-21T23:39:11.718Z,97011.56
2023-09-21T23:41:16.547Z,97014.34
2023-09-21T23:43:21.263Z,97016.75
2023-09-21T23:45:28.711Z,97018.03
2023-09-21T23:47:33.439Z,97023.19
2023-09-21T23:49:38.918Z,97030.47
2023-09-21T23:51:45.088Z,97024.38
2023-09-21T23:53:49.895Z,97028.25
2023-09-21T23:55:56.569Z,97046.94
2023-09-21T23:58:01.315Z,97058.72
